sensor_id;sensor_type;location;lat;lon;timestamp;P1;durP1;ratioP1;P2;durP2;ratioP2
36185;SDS011;22228;53.222;7.446;2023-04-01T00:02:02;12.30;;;11.00;;
36185;SDS011;22228;53.222;7.446;2023-04-01T00:04:24;13.63;;;10.93;;
36185;SDS011;22228;53.222;7.446;2023-04-01T00:06:44;13.63;;;12.30;;
36185;SDS011;22228;53.222;7.446;2023-04-01T00:09:05;16.03;;;12.27;;
36185;SDS011;22228;53.222;7.446;2023-04-01T00:11:26;12.77;;;11.50;;
36185;SDS011;22228;53.222;7.446;2023-04-01T00:13:47;14.47;;;12.67;;
36185;SDS011;22228;53.222;7.446;2023-04-01T03:02:52;29.73;;;23.17;;
36185;SDS011;22228;53.222;7.446;2023-04-01T03:05:13;26.67;;;22.17;;
36185;SDS011;22228;53.222;7.446;2023-04-01T03:07:34;27.33;;;22.43;;
36185;SDS011;22228;53.222;7.446;2023-04-01T03:09:55;29.43;;;22.80;;
36185;SDS011;22228;53.222;7.446;2023-04-01T03:12:15;28.60;;;23.40;;
36185;SDS011;22228;53.222;7.446;2023-04-01T03:14:42;30.50;;;24.17;;
36185;SDS011;22228;53.222;7.446;2023-04-01T03:17:04;32.63;;;24.17;;
36185;SDS011;22228;53.222;7.446;2023-04-01T03:19:25;29.03;;;24.03;;
36185;SDS011;22228;53.222;7.446;2023-04-01T03:21:46;35.13;;;23.87;;
36185;SDS011;22228;53.222;7.446;2023-04-01T03:24:07;33.10;;;24.70;;
36185;SDS011;22228;53.222;7.446;2023-04-01T03:26:27;30.33;;;23.83;;
36185;SDS011;22228;53.222;7.446;2023-04-01T03:28:48;29.83;;;22.60;;
36185;SDS011;22228;53.222;7.446;2023-04-01T03:31:08;28.47;;;22.73;;
36185;SDS011;22228;53.222;7.446;2023-04-01T03:33:36;30.27;;;23.67;;
36185;SDS011;22228;53.222;7.446;2023-04-01T03:35:57;29.80;;;24.33;;
36185;SDS011;22228;53.222;7.446;2023-04-01T03:38:18;28.73;;;23.13;;
36185;SDS011;22228;53.222;7.446;2023-04-01T03:40:41;32.10;;;24.90;;
36185;SDS011;22228;53.222;7.446;2023-04-01T03:43:03;33.33;;;24.80;;
36185;SDS011;22228;53.222;7.446;2023-04-01T03:45:26;32.00;;;24.57;;
36185;SDS011;22228;53.222;7.446;2023-04-01T03:47:47;28.87;;;24.23;;
36185;SDS011;22228;53.222;7.446;2023-04-01T03:50:09;32.00;;;24.57;;
36185;SDS011;22228;53.222;7.446;2023-04-01T03:52:30;30.70;;;22.80;;
36185;SDS011;22228;53.222;7.446;2023-04-01T03:54:51;30.50;;;23.30;;
36185;SDS011;22228;53.222;7.446;2023-04-01T03:57:12;30.00;;;23.77;;
36185;SDS011;22228;53.222;7.446;2023-04-01T03:59:33;28.67;;;23.57;;
36185;SDS011;22228;53.222;7.446;2023-04-01T04:01:55;33.53;;;25.90;;
36185;SDS011;22228;53.222;7.446;2023-04-01T04:04:16;30.73;;;24.10;;
36185;SDS011;22228;53.222;7.446;2023-04-01T04:06:38;33.20;;;24.60;;
36185;SDS011;22228;53.222;7.446;2023-04-01T04:08:58;30.80;;;24.67;;
36185;SDS011;22228;53.222;7.446;2023-04-01T04:11:20;36.60;;;26.00;;
36185;SDS011;22228;53.222;7.446;2023-04-01T04:13:44;30.00;;;24.20;;
36185;SDS011;22228;53.222;7.446;2023-04-01T04:16:07;31.60;;;25.43;;
36185;SDS011;22228;53.222;7.446;2023-04-01T04:18:30;34.63;;;26.03;;
36185;SDS011;22228;53.222;7.446;2023-04-01T04:20:50;36.20;;;26.20;;
36185;SDS011;22228;53.222;7.446;2023-04-01T04:23:13;32.10;;;25.10;;
36185;SDS011;22228;53.222;7.446;2023-04-01T04:25:34;31.83;;;24.17;;
36185;SDS011;22228;53.222;7.446;2023-04-01T04:27:54;36.43;;;25.63;;
36185;SDS011;22228;53.222;7.446;2023-04-01T04:30:15;30.53;;;24.30;;
36185;SDS011;22228;53.222;7.446;2023-04-01T04:32:36;33.93;;;25.60;;
36185;SDS011;22228;53.222;7.446;2023-04-01T04:34:57;36.77;;;26.13;;
36185;SDS011;22228;53.222;7.446;2023-04-01T04:37:18;35.70;;;25.50;;
36185;SDS011;22228;53.222;7.446;2023-04-01T04:39:40;34.73;;;26.20;;
36185;SDS011;22228;53.222;7.446;2023-04-01T04:42:01;33.13;;;25.00;;
36185;SDS011;22228;53.222;7.446;2023-04-01T04:44:21;36.57;;;25.70;;
36185;SDS011;22228;53.222;7.446;2023-04-01T04:46:42;33.17;;;25.00;;
36185;SDS011;22228;53.222;7.446;2023-04-01T04:49:07;35.50;;;26.67;;
36185;SDS011;22228;53.222;7.446;2023-04-01T04:51:27;38.30;;;27.00;;
36185;SDS011;22228;53.222;7.446;2023-04-01T04:53:48;34.70;;;26.50;;
36185;SDS011;22228;53.222;7.446;2023-04-01T04:56:11;35.83;;;25.17;;
36185;SDS011;22228;53.222;7.446;2023-04-01T04:58:41;34.80;;;25.33;;
36185;SDS011;22228;53.222;7.446;2023-04-01T05:01:08;36.43;;;25.70;;
36185;SDS011;22228;53.222;7.446;2023-04-01T05:03:30;36.50;;;26.80;;
36185;SDS011;22228;53.222;7.446;2023-04-01T05:05:51;40.90;;;26.63;;
36185;SDS011;22228;53.222;7.446;2023-04-01T05:08:13;37.20;;;27.23;;
36185;SDS011;22228;53.222;7.446;2023-04-01T05:10:34;42.47;;;28.33;;
36185;SDS011;22228;53.222;7.446;2023-04-01T05:12:56;41.70;;;27.60;;
36185;SDS011;22228;53.222;7.446;2023-04-01T05:15:16;36.27;;;25.97;;
36185;SDS011;22228;53.222;7.446;2023-04-01T05:17:37;39.30;;;27.77;;
36185;SDS011;22228;53.222;7.446;2023-04-01T05:19:58;37.43;;;26.70;;
36185;SDS011;22228;53.222;7.446;2023-04-01T05:22:19;41.00;;;27.73;;
36185;SDS011;22228;53.222;7.446;2023-04-01T05:24:40;39.23;;;27.53;;
36185;SDS011;22228;53.222;7.446;2023-04-01T05:27:00;41.77;;;27.90;;
36185;SDS011;22228;53.222;7.446;2023-04-01T05:29:23;34.50;;;27.00;;
36185;SDS011;22228;53.222;7.446;2023-04-01T05:31:50;37.80;;;26.87;;
36185;SDS011;22228;53.222;7.446;2023-04-01T05:34:10;36.33;;;26.60;;
36185;SDS011;22228;53.222;7.446;2023-04-01T05:36:31;41.33;;;28.93;;
36185;SDS011;22228;53.222;7.446;2023-04-01T05:38:54;39.87;;;28.20;;
36185;SDS011;22228;53.222;7.446;2023-04-01T05:41:14;38.53;;;26.53;;
36185;SDS011;22228;53.222;7.446;2023-04-01T05:43:39;37.33;;;26.47;;
36185;SDS011;22228;53.222;7.446;2023-04-01T05:46:24;36.87;;;26.10;;
36185;SDS011;22228;53.222;7.446;2023-04-01T05:49:02;38.43;;;26.60;;
36185;SDS011;22228;53.222;7.446;2023-04-01T05:51:23;37.53;;;26.77;;
36185;SDS011;22228;53.222;7.446;2023-04-01T05:53:43;38.30;;;27.13;;
36185;SDS011;22228;53.222;7.446;2023-04-01T05:56:05;38.80;;;26.80;;
36185;SDS011;22228;53.222;7.446;2023-04-01T05:58:31;41.17;;;27.03;;
36185;SDS011;22228;53.222;7.446;2023-04-01T06:00:52;41.87;;;28.30;;
36185;SDS011;22228;53.222;7.446;2023-04-01T06:03:21;42.93;;;27.47;;
36185;SDS011;22228;53.222;7.446;2023-04-01T06:05:42;45.13;;;27.87;;
36185;SDS011;22228;53.222;7.446;2023-04-01T06:08:05;42.00;;;27.83;;
36185;SDS011;22228;53.222;7.446;2023-04-01T06:10:33;41.03;;;27.43;;
36185;SDS011;22228;53.222;7.446;2023-04-01T06:13:04;43.50;;;28.07;;
36185;SDS011;22228;53.222;7.446;2023-04-01T06:15:33;44.00;;;29.20;;
36185;SDS011;22228;53.222;7.446;2023-04-01T06:18:03;39.73;;;26.13;;
36185;SDS011;22228;53.222;7.446;2023-04-01T06:20:42;38.70;;;25.93;;
36185;SDS011;22228;53.222;7.446;2023-04-01T06:23:14;34.83;;;24.97;;
36185;SDS011;22228;53.222;7.446;2023-04-01T06:25:54;36.40;;;24.47;;
36185;SDS011;22228;53.222;7.446;2023-04-01T06:28:32;33.67;;;23.63;;
36185;SDS011;22228;53.222;7.446;2023-04-01T06:31:06;33.33;;;23.47;;
36185;SDS011;22228;53.222;7.446;2023-04-01T06:33:40;29.93;;;22.33;;
36185;SDS011;22228;53.222;7.446;2023-04-01T06:36:23;31.73;;;23.40;;
36185;SDS011;22228;53.222;7.446;2023-04-01T06:39:03;35.07;;;23.07;;
36185;SDS011;22228;53.222;7.446;2023-04-01T06:41:38;36.07;;;25.27;;
36185;SDS011;22228;53.222;7.446;2023-04-01T06:44:23;36.00;;;23.77;;
36185;SDS011;22228;53.222;7.446;2023-04-01T06:47:18;33.90;;;23.70;;
36185;SDS011;22228;53.222;7.446;2023-04-01T06:50:20;30.07;;;21.30;;
36185;SDS011;22228;53.222;7.446;2023-04-01T06:53:07;29.53;;;21.80;;
36185;SDS011;22228;53.222;7.446;2023-04-01T06:55:51;28.97;;;21.77;;
36185;SDS011;22228;53.222;7.446;2023-04-01T06:58:26;29.43;;;21.93;;
36185;SDS011;22228;53.222;7.446;2023-04-01T07:00:51;35.03;;;23.50;;
36185;SDS011;22228;53.222;7.446;2023-04-01T07:03:17;30.97;;;22.30;;
36185;SDS011;22228;53.222;7.446;2023-04-01T07:05:41;32.50;;;23.67;;
36185;SDS011;22228;53.222;7.446;2023-04-01T07:08:03;31.57;;;22.83;;
36185;SDS011;22228;53.222;7.446;2023-04-01T07:10:31;28.33;;;21.20;;
36185;SDS011;22228;53.222;7.446;2023-04-01T07:13:15;31.37;;;25.40;;
36185;SDS011;22228;53.222;7.446;2023-04-01T07:15:50;29.70;;;24.17;;
36185;SDS011;22228;53.222;7.446;2023-04-01T07:18:21;31.17;;;24.70;;
36185;SDS011;22228;53.222;7.446;2023-04-01T07:20:48;27.77;;;21.83;;
36185;SDS011;22228;53.222;7.446;2023-04-01T07:23:10;30.73;;;23.00;;
36185;SDS011;22228;53.222;7.446;2023-04-01T07:25:50;28.43;;;22.80;;
36185;SDS011;22228;53.222;7.446;2023-04-01T07:28:22;24.70;;;20.30;;
36185;SDS011;22228;53.222;7.446;2023-04-01T07:30:53;29.03;;;23.20;;
36185;SDS011;22228;53.222;7.446;2023-04-01T07:33:25;22.43;;;18.90;;
36185;SDS011;22228;53.222;7.446;2023-04-01T07:35:51;25.93;;;20.73;;
36185;SDS011;22228;53.222;7.446;2023-04-01T07:38:20;24.17;;;18.97;;
36185;SDS011;22228;53.222;7.446;2023-04-01T07:40:51;18.97;;;16.67;;
36185;SDS011;22228;53.222;7.446;2023-04-01T07:43:22;21.33;;;17.60;;
36185;SDS011;22228;53.222;7.446;2023-04-01T07:46:10;16.80;;;14.73;;
36185;SDS011;22228;53.222;7.446;2023-04-01T07:48:38;16.77;;;15.03;;
36185;SDS011;22228;53.222;7.446;2023-04-01T07:51:06;15.73;;;13.80;;
36185;SDS011;22228;53.222;7.446;2023-04-01T07:53:36;14.50;;;13.00;;
36185;SDS011;22228;53.222;7.446;2023-04-01T07:56:06;16.67;;;15.00;;
36185;SDS011;22228;53.222;7.446;2023-04-01T07:58:35;17.33;;;15.53;;
36185;SDS011;22228;53.222;7.446;2023-04-01T08:01:13;14.57;;;13.13;;
36185;SDS011;22228;53.222;7.446;2023-04-01T08:03:48;13.00;;;11.20;;
36185;SDS011;22228;53.222;7.446;2023-04-01T08:06:23;13.70;;;12.33;;
36185;SDS011;22228;53.222;7.446;2023-04-01T08:08:51;13.53;;;12.30;;
36185;SDS011;22228;53.222;7.446;2023-04-01T08:11:44;11.93;;;10.83;;
36185;SDS011;22228;53.222;7.446;2023-04-01T08:14:36;12.77;;;11.60;;
36185;SDS011;22228;53.222;7.446;2023-04-01T08:17:28;11.97;;;10.73;;
36185;SDS011;22228;53.222;7.446;2023-04-01T08:19:56;11.80;;;10.77;;
36185;SDS011;22228;53.222;7.446;2023-04-01T08:22:29;9.23;;;8.33;;
36185;SDS011;22228;53.222;7.446;2023-04-01T08:25:03;8.83;;;8.13;;
36185;SDS011;22228;53.222;7.446;2023-04-01T08:27:28;8.60;;;7.80;;
36185;SDS011;22228;53.222;7.446;2023-04-01T08:29:55;10.13;;;9.20;;
36185;SDS011;22228;53.222;7.446;2023-04-01T08:32:20;10.87;;;9.63;;
36185;SDS011;22228;53.222;7.446;2023-04-01T08:34:46;9.70;;;8.83;;
36185;SDS011;22228;53.222;7.446;2023-04-01T08:37:22;7.97;;;7.37;;
36185;SDS011;22228;53.222;7.446;2023-04-01T08:39:50;7.40;;;6.80;;
36185;SDS011;22228;53.222;7.446;2023-04-01T08:42:30;8.47;;;7.87;;
36185;SDS011;22228;53.222;7.446;2023-04-01T08:45:15;7.03;;;6.53;;
36185;SDS011;22228;53.222;7.446;2023-04-01T08:47:52;8.10;;;7.50;;
36185;SDS011;22228;53.222;7.446;2023-04-01T08:50:44;8.00;;;7.40;;
36185;SDS011;22228;53.222;7.446;2023-04-01T08:53:28;9.43;;;8.60;;
36185;SDS011;22228;53.222;7.446;2023-04-01T08:56:06;10.70;;;9.90;;
36185;SDS011;22228;53.222;7.446;2023-04-01T08:58:44;6.83;;;6.23;;
36185;SDS011;22228;53.222;7.446;2023-04-01T09:01:26;5.43;;;4.83;;
36185;SDS011;22228;53.222;7.446;2023-04-01T09:04:36;5.07;;;4.57;;
36185;SDS011;22228;53.222;7.446;2023-04-01T09:07:13;4.63;;;4.33;;
36185;SDS011;22228;53.222;7.446;2023-04-01T09:12:48;3.63;;;3.43;;
36185;SDS011;22228;53.222;7.446;2023-04-01T09:15:32;3.13;;;2.93;;
36185;SDS011;22228;53.222;7.446;2023-04-01T09:18:22;2.30;;;2.20;;
36185;SDS011;22228;53.222;7.446;2023-04-01T09:21:01;1.97;;;1.43;;
36185;SDS011;22228;53.222;7.446;2023-04-01T09:23:38;1.57;;;1.47;;
36185;SDS011;22228;53.222;7.446;2023-04-01T09:26:19;1.40;;;1.40;;
36185;SDS011;22228;53.222;7.446;2023-04-01T09:28:51;1.60;;;1.50;;
36185;SDS011;22228;53.222;7.446;2023-04-01T09:31:23;1.70;;;1.60;;
36185;SDS011;22228;53.222;7.446;2023-04-01T09:34:36;1.70;;;1.60;;
36185;SDS011;22228;53.222;7.446;2023-04-01T09:37:19;1.43;;;1.43;;
36185;SDS011;22228;53.222;7.446;2023-04-01T09:39:47;1.53;;;1.43;;
36185;SDS011;22228;53.222;7.446;2023-04-01T09:42:38;1.10;;;1.10;;
36185;SDS011;22228;53.222;7.446;2023-04-01T09:45:15;1.40;;;1.30;;
36185;SDS011;22228;53.222;7.446;2023-04-01T09:47:51;1.33;;;1.27;;
36185;SDS011;22228;53.222;7.446;2023-04-01T09:50:28;1.37;;;1.27;;
36185;SDS011;22228;53.222;7.446;2023-04-01T09:52:55;1.60;;;1.50;;
36185;SDS011;22228;53.222;7.446;2023-04-01T09:55:52;1.30;;;1.30;;
36185;SDS011;22228;53.222;7.446;2023-04-01T09:58:43;1.50;;;1.40;;
36185;SDS011;22228;53.222;7.446;2023-04-01T10:02:12;1.20;;;1.20;;
36185;SDS011;22228;53.222;7.446;2023-04-01T10:04:53;1.63;;;1.53;;
36185;SDS011;22228;53.222;7.446;2023-04-01T10:07:42;2.03;;;1.93;;
36185;SDS011;22228;53.222;7.446;2023-04-01T10:10:32;3.10;;;2.90;;
36185;SDS011;22228;53.222;7.446;2023-04-01T10:13:12;3.20;;;3.10;;
36185;SDS011;22228;53.222;7.446;2023-04-01T10:25:04;2.10;;;2.00;;
36185;SDS011;22228;53.222;7.446;2023-04-01T10:27:55;1.40;;;1.30;;
36185;SDS011;22228;53.222;7.446;2023-04-01T10:37:08;1.20;;;1.20;;
36185;SDS011;22228;53.222;7.446;2023-04-01T10:39:52;1.10;;;1.00;;
36185;SDS011;22228;53.222;7.446;2023-04-01T10:46:21;1.00;;;1.00;;
36185;SDS011;22228;53.222;7.446;2023-04-01T10:55:27;0.60;;;0.60;;
36185;SDS011;22228;53.222;7.446;2023-04-01T10:58:51;1.13;;;1.13;;
36185;SDS011;22228;53.222;7.446;2023-04-01T11:02:01;1.40;;;1.40;;
36185;SDS011;22228;53.222;7.446;2023-04-01T11:10:52;0.80;;;0.80;;
36185;SDS011;22228;53.222;7.446;2023-04-01T11:13:40;1.10;;;0.80;;
36185;SDS011;22228;53.222;7.446;2023-04-01T11:19:35;1.27;;;0.90;;
36185;SDS011;22228;53.222;7.446;2023-04-01T11:22:21;0.87;;;0.80;;
36185;SDS011;22228;53.222;7.446;2023-04-01T11:25:04;0.90;;;0.90;;
36185;SDS011;22228;53.222;7.446;2023-04-01T11:28:11;1.00;;;1.00;;
36185;SDS011;22228;53.222;7.446;2023-04-01T11:31:00;4.33;;;4.13;;
36185;SDS011;22228;53.222;7.446;2023-04-01T11:33:36;1.10;;;1.10;;
36185;SDS011;22228;53.222;7.446;2023-04-01T11:36:04;0.87;;;0.87;;
36185;SDS011;22228;53.222;7.446;2023-04-01T11:38:41;0.90;;;0.90;;
36185;SDS011;22228;53.222;7.446;2023-04-01T11:41:52;0.90;;;0.90;;
36185;SDS011;22228;53.222;7.446;2023-04-01T11:44:41;0.90;;;0.90;;
36185;SDS011;22228;53.222;7.446;2023-04-01T11:47:15;0.90;;;0.90;;
36185;SDS011;22228;53.222;7.446;2023-04-01T11:49:50;0.70;;;0.70;;
36185;SDS011;22228;53.222;7.446;2023-04-01T11:52:53;1.00;;;1.00;;
36185;SDS011;22228;53.222;7.446;2023-04-01T11:55:24;1.10;;;1.10;;
36185;SDS011;22228;53.222;7.446;2023-04-01T11:57:56;1.07;;;0.97;;
36185;SDS011;22228;53.222;7.446;2023-04-01T12:00:43;0.90;;;0.90;;
36185;SDS011;22228;53.222;7.446;2023-04-01T12:03:25;0.80;;;0.80;;
36185;SDS011;22228;53.222;7.446;2023-04-01T12:05:58;0.80;;;0.80;;
36185;SDS011;22228;53.222;7.446;2023-04-01T12:08:25;1.20;;;0.80;;
36185;SDS011;22228;53.222;7.446;2023-04-01T12:10:57;0.80;;;0.80;;
36185;SDS011;22228;53.222;7.446;2023-04-01T12:13:28;0.80;;;0.80;;
36185;SDS011;22228;53.222;7.446;2023-04-01T12:16:02;1.00;;;1.00;;
36185;SDS011;22228;53.222;7.446;2023-04-01T12:18:33;1.00;;;1.00;;
36185;SDS011;22228;53.222;7.446;2023-04-01T12:21:00;1.10;;;1.10;;
36185;SDS011;22228;53.222;7.446;2023-04-01T12:23:41;0.90;;;0.90;;
36185;SDS011;22228;53.222;7.446;2023-04-01T12:26:24;1.00;;;1.00;;
36185;SDS011;22228;53.222;7.446;2023-04-01T12:29:03;1.00;;;1.00;;
36185;SDS011;22228;53.222;7.446;2023-04-01T12:31:39;0.80;;;0.80;;
36185;SDS011;22228;53.222;7.446;2023-04-01T12:37:11;0.80;;;0.80;;
36185;SDS011;22228;53.222;7.446;2023-04-01T12:39:44;0.80;;;0.80;;
36185;SDS011;22228;53.222;7.446;2023-04-01T12:42:20;0.80;;;0.80;;
36185;SDS011;22228;53.222;7.446;2023-04-01T12:44:55;0.90;;;0.90;;
36185;SDS011;22228;53.222;7.446;2023-04-01T12:47:37;0.80;;;0.80;;
36185;SDS011;22228;53.222;7.446;2023-04-01T12:50:39;0.90;;;0.90;;
36185;SDS011;22228;53.222;7.446;2023-04-01T12:53:19;0.70;;;0.70;;
36185;SDS011;22228;53.222;7.446;2023-04-01T12:55:59;0.70;;;0.70;;
36185;SDS011;22228;53.222;7.446;2023-04-01T13:01:21;0.90;;;0.90;;
36185;SDS011;22228;53.222;7.446;2023-04-01T13:04:04;0.90;;;0.90;;
36185;SDS011;22228;53.222;7.446;2023-04-01T13:06:40;0.70;;;0.70;;
36185;SDS011;22228;53.222;7.446;2023-04-01T13:09:23;0.80;;;0.80;;
36185;SDS011;22228;53.222;7.446;2023-04-01T13:11:57;0.80;;;0.80;;
36185;SDS011;22228;53.222;7.446;2023-04-01T13:14:41;0.60;;;0.60;;
36185;SDS011;22228;53.222;7.446;2023-04-01T13:17:13;0.90;;;0.90;;
36185;SDS011;22228;53.222;7.446;2023-04-01T13:19:42;0.77;;;0.77;;
36185;SDS011;22228;53.222;7.446;2023-04-01T13:22:09;0.80;;;0.80;;
36185;SDS011;22228;53.222;7.446;2023-04-01T13:24:40;0.90;;;0.90;;
36185;SDS011;22228;53.222;7.446;2023-04-01T13:27:06;1.00;;;1.00;;
36185;SDS011;22228;53.222;7.446;2023-04-01T13:29:35;0.80;;;0.80;;
36185;SDS011;22228;53.222;7.446;2023-04-01T13:32:06;0.80;;;0.80;;
36185;SDS011;22228;53.222;7.446;2023-04-01T13:34:53;0.83;;;0.83;;
36185;SDS011;22228;53.222;7.446;2023-04-01T13:37:25;1.47;;;0.83;;
36185;SDS011;22228;53.222;7.446;2023-04-01T13:40:02;1.00;;;1.00;;
36185;SDS011;22228;53.222;7.446;2023-04-01T13:42:35;0.87;;;0.70;;
36185;SDS011;22228;53.222;7.446;2023-04-01T13:45:00;0.70;;;0.70;;
36185;SDS011;22228;53.222;7.446;2023-04-01T13:47:53;0.80;;;0.80;;
36185;SDS011;22228;53.222;7.446;2023-04-01T13:53:27;0.60;;;0.60;;
36185;SDS011;22228;53.222;7.446;2023-04-01T13:56:16;0.80;;;0.80;;
36185;SDS011;22228;53.222;7.446;2023-04-01T13:58:50;0.80;;;0.80;;
36185;SDS011;22228;53.222;7.446;2023-04-01T14:01:19;0.90;;;0.90;;
36185;SDS011;22228;53.222;7.446;2023-04-01T14:04:03;0.87;;;0.87;;
36185;SDS011;22228;53.222;7.446;2023-04-01T14:06:43;0.80;;;0.80;;
36185;SDS011;22228;53.222;7.446;2023-04-01T14:12:04;0.90;;;0.90;;
36185;SDS011;22228;53.222;7.446;2023-04-01T14:14:31;0.70;;;0.70;;
36185;SDS011;22228;53.222;7.446;2023-04-01T14:17:10;0.90;;;0.90;;
36185;SDS011;22228;53.222;7.446;2023-04-01T14:19:48;0.70;;;0.70;;
36185;SDS011;22228;53.222;7.446;2023-04-01T14:22:23;1.80;;;0.80;;
36185;SDS011;22228;53.222;7.446;2023-04-01T14:24:53;0.70;;;0.70;;
36185;SDS011;22228;53.222;7.446;2023-04-01T14:27:29;0.70;;;0.70;;
36185;SDS011;22228;53.222;7.446;2023-04-01T14:30:00;1.07;;;0.97;;
36185;SDS011;22228;53.222;7.446;2023-04-01T14:32:39;1.00;;;1.00;;
36185;SDS011;22228;53.222;7.446;2023-04-01T14:35:14;0.83;;;0.83;;
36185;SDS011;22228;53.222;7.446;2023-04-01T14:38:01;1.63;;;1.03;;
36185;SDS011;22228;53.222;7.446;2023-04-01T14:40:27;0.90;;;0.90;;
36185;SDS011;22228;53.222;7.446;2023-04-01T14:48:23;1.30;;;1.20;;
36185;SDS011;22228;53.222;7.446;2023-04-01T14:50:49;2.07;;;1.97;;
36185;SDS011;22228;53.222;7.446;2023-04-01T14:53:16;1.70;;;1.60;;
36185;SDS011;22228;53.222;7.446;2023-04-01T14:55:48;2.43;;;2.33;;
36185;SDS011;22228;53.222;7.446;2023-04-01T14:58:11;3.03;;;2.83;;
36185;SDS011;22228;53.222;7.446;2023-04-01T15:00:39;3.53;;;3.33;;
36185;SDS011;22228;53.222;7.446;2023-04-01T15:03:07;3.60;;;3.40;;
36185;SDS011;22228;53.222;7.446;2023-04-01T15:05:38;3.43;;;3.23;;
36185;SDS011;22228;53.222;7.446;2023-04-01T15:08:09;3.43;;;3.33;;
36185;SDS011;22228;53.222;7.446;2023-04-01T15:10:40;5.07;;;4.73;;
36185;SDS011;22228;53.222;7.446;2023-04-01T15:13:24;4.07;;;3.77;;
36185;SDS011;22228;53.222;7.446;2023-04-01T15:16:10;3.63;;;3.33;;
36185;SDS011;22228;53.222;7.446;2023-04-01T15:18:41;4.33;;;4.03;;
36185;SDS011;22228;53.222;7.446;2023-04-01T15:24:21;3.70;;;3.50;;
36185;SDS011;22228;53.222;7.446;2023-04-01T15:27:01;4.33;;;3.97;;
36185;SDS011;22228;53.222;7.446;2023-04-01T15:32:20;4.67;;;4.30;;
36185;SDS011;22228;53.222;7.446;2023-04-01T15:34:45;4.30;;;4.00;;
36185;SDS011;22228;53.222;7.446;2023-04-01T15:37:15;4.60;;;4.27;;
36185;SDS011;22228;53.222;7.446;2023-04-01T15:39:46;4.90;;;4.60;;
36185;SDS011;22228;53.222;7.446;2023-04-01T15:42:18;4.40;;;4.00;;
36185;SDS011;22228;53.222;7.446;2023-04-01T15:44:58;5.07;;;4.03;;
36185;SDS011;22228;53.222;7.446;2023-04-01T15:47:31;4.30;;;3.90;;
36185;SDS011;22228;53.222;7.446;2023-04-01T15:49:57;5.30;;;4.70;;
36185;SDS011;22228;53.222;7.446;2023-04-01T15:52:41;4.87;;;3.80;;
36185;SDS011;22228;53.222;7.446;2023-04-01T15:55:14;4.80;;;4.13;;
36185;SDS011;22228;53.222;7.446;2023-04-01T15:57:42;4.70;;;4.30;;
36185;SDS011;22228;53.222;7.446;2023-04-01T16:00:17;5.23;;;4.77;;
36185;SDS011;22228;53.222;7.446;2023-04-01T16:02:46;5.50;;;5.00;;
36185;SDS011;22228;53.222;7.446;2023-04-01T16:05:11;5.73;;;5.23;;
36185;SDS011;22228;53.222;7.446;2023-04-01T16:07:52;5.67;;;5.17;;
36185;SDS011;22228;53.222;7.446;2023-04-01T16:10:46;9.53;;;6.07;;
36185;SDS011;22228;53.222;7.446;2023-04-01T16:13:33;5.97;;;5.20;;
36185;SDS011;22228;53.222;7.446;2023-04-01T16:16:06;5.77;;;5.17;;
36185;SDS011;22228;53.222;7.446;2023-04-01T16:18:38;6.10;;;5.40;;
36185;SDS011;22228;53.222;7.446;2023-04-01T16:21:19;6.37;;;5.77;;
36185;SDS011;22228;53.222;7.446;2023-04-01T16:23:48;5.70;;;5.20;;
36185;SDS011;22228;53.222;7.446;2023-04-01T16:26:17;4.50;;;4.20;;
36185;SDS011;22228;53.222;7.446;2023-04-01T16:28:50;5.40;;;4.90;;
36185;SDS011;22228;53.222;7.446;2023-04-01T16:31:15;5.63;;;5.17;;
36185;SDS011;22228;53.222;7.446;2023-04-01T16:33:47;4.87;;;4.47;;
36185;SDS011;22228;53.222;7.446;2023-04-01T16:36:13;4.83;;;4.37;;
36185;SDS011;22228;53.222;7.446;2023-04-01T16:38:46;4.50;;;4.20;;
36185;SDS011;22228;53.222;7.446;2023-04-01T16:41:26;5.30;;;4.83;;
36185;SDS011;22228;53.222;7.446;2023-04-01T16:43:51;6.77;;;4.87;;
36185;SDS011;22228;53.222;7.446;2023-04-01T16:46:31;5.47;;;4.50;;
36185;SDS011;22228;53.222;7.446;2023-04-01T16:49:00;4.30;;;3.90;;
36185;SDS011;22228;53.222;7.446;2023-04-01T16:51:25;4.83;;;4.43;;
36185;SDS011;22228;53.222;7.446;2023-04-01T16:54:01;5.53;;;5.03;;
36185;SDS011;22228;53.222;7.446;2023-04-01T16:56:27;8.80;;;5.40;;
36185;SDS011;22228;53.222;7.446;2023-04-01T16:59:02;8.00;;;6.87;;
36185;SDS011;22228;53.222;7.446;2023-04-01T17:01:29;6.37;;;5.60;;
36185;SDS011;22228;53.222;7.446;2023-04-01T17:04:06;6.47;;;5.23;;
36185;SDS011;22228;53.222;7.446;2023-04-01T17:06:34;5.37;;;4.53;;
36185;SDS011;22228;53.222;7.446;2023-04-01T17:09:20;6.77;;;5.10;;
36185;SDS011;22228;53.222;7.446;2023-04-01T17:11:53;5.93;;;5.43;;
36185;SDS011;22228;53.222;7.446;2023-04-01T17:14:18;6.20;;;5.50;;
36185;SDS011;22228;53.222;7.446;2023-04-01T17:16:51;7.17;;;5.10;;
36185;SDS011;22228;53.222;7.446;2023-04-01T17:19:19;5.47;;;4.97;;
36185;SDS011;22228;53.222;7.446;2023-04-01T17:21:56;6.20;;;5.70;;
36185;SDS011;22228;53.222;7.446;2023-04-01T17:24:25;6.40;;;5.83;;
36185;SDS011;22228;53.222;7.446;2023-04-01T17:26:55;6.70;;;5.67;;
36185;SDS011;22228;53.222;7.446;2023-04-01T17:29:26;6.83;;;5.53;;
36185;SDS011;22228;53.222;7.446;2023-04-01T17:31:55;6.60;;;5.87;;
36185;SDS011;22228;53.222;7.446;2023-04-01T17:34:26;7.27;;;4.97;;
36185;SDS011;22228;53.222;7.446;2023-04-01T17:37:04;6.30;;;5.13;;
36185;SDS011;22228;53.222;7.446;2023-04-01T17:39:41;6.37;;;5.10;;
36185;SDS011;22228;53.222;7.446;2023-04-01T17:42:11;7.10;;;5.30;;
36185;SDS011;22228;53.222;7.446;2023-04-01T17:44:44;8.93;;;5.00;;
36185;SDS011;22228;53.222;7.446;2023-04-01T17:47:19;7.50;;;5.57;;
36185;SDS011;22228;53.222;7.446;2023-04-01T17:49:49;5.63;;;4.53;;
36185;SDS011;22228;53.222;7.446;2023-04-01T17:52:19;9.53;;;5.90;;
36185;SDS011;22228;53.222;7.446;2023-04-01T17:54:47;7.83;;;5.53;;
36185;SDS011;22228;53.222;7.446;2023-04-01T17:57:30;5.30;;;4.80;;
36185;SDS011;22228;53.222;7.446;2023-04-01T18:00:13;5.80;;;5.20;;
36185;SDS011;22228;53.222;7.446;2023-04-01T18:02:40;5.13;;;4.63;;
36185;SDS011;22228;53.222;7.446;2023-04-01T18:05:15;7.37;;;5.20;;
36185;SDS011;22228;53.222;7.446;2023-04-01T18:08:01;6.97;;;6.07;;
36185;SDS011;22228;53.222;7.446;2023-04-01T18:10:51;6.80;;;4.93;;
36185;SDS011;22228;53.222;7.446;2023-04-01T18:13:23;9.20;;;4.87;;
36185;SDS011;22228;53.222;7.446;2023-04-01T18:15:59;9.50;;;5.27;;
36185;SDS011;22228;53.222;7.446;2023-04-01T18:18:35;7.47;;;5.67;;
36185;SDS011;22228;53.222;7.446;2023-04-01T18:21:07;6.00;;;5.20;;
36185;SDS011;22228;53.222;7.446;2023-04-01T18:23:35;7.07;;;5.03;;
36185;SDS011;22228;53.222;7.446;2023-04-01T18:26:02;7.50;;;5.23;;
36185;SDS011;22228;53.222;7.446;2023-04-01T18:28:30;6.37;;;5.33;;
36185;SDS011;22228;53.222;7.446;2023-04-01T18:30:56;8.43;;;5.50;;
36185;SDS011;22228;53.222;7.446;2023-04-01T18:33:25;7.27;;;5.10;;
36185;SDS011;22228;53.222;7.446;2023-04-01T18:35:54;8.57;;;5.60;;
36185;SDS011;22228;53.222;7.446;2023-04-01T18:38:25;7.83;;;5.57;;
36185;SDS011;22228;53.222;7.446;2023-04-01T18:40:50;8.20;;;5.83;;
36185;SDS011;22228;53.222;7.446;2023-04-01T18:43:16;6.87;;;5.63;;
36185;SDS011;22228;53.222;7.446;2023-04-01T18:45:45;6.90;;;5.83;;
36185;SDS011;22228;53.222;7.446;2023-04-01T18:48:15;8.77;;;6.20;;
36185;SDS011;22228;53.222;7.446;2023-04-01T18:50:50;10.67;;;6.83;;
36185;SDS011;22228;53.222;7.446;2023-04-01T18:53:17;8.63;;;6.30;;
36185;SDS011;22228;53.222;7.446;2023-04-01T18:55:46;8.43;;;6.40;;
36185;SDS011;22228;53.222;7.446;2023-04-01T18:58:14;11.20;;;6.83;;
36185;SDS011;22228;53.222;7.446;2023-04-01T19:00:41;9.63;;;7.20;;